Green Lofoten — P3MG8 — position and weather

sailwx.info

Track history (hours):
 
Tides and Currents Weather Stations Pressure Air Temp Water Temp Dewpoint Dewpoint Depression Visibility Wind Speed Wind Dir Waves Ship Positions

Green Lofoten

Last reported at 2017-Dec-17 00:00 UTC. Time now 2017-Dec-18 13:01 UTC.
Position N 57°48' E 006°01'.

Length 98 m; draft 4.6 m.

Type: Ship. MMSI: 212857000.

Date/timePositionNaut miles runAvg speedWind from/ knotsBaromVisibWave heightAir tempDewpointWater temp
2017-Dec-17 00:00N 57°48' E 006°01'714.4
2017-Dec-16 23:30N 57°48' E 006°14'714.5
2017-Dec-16 23:00N 57°48' E 006°28'815.3
2017-Dec-16 22:30N 57°49' E 006°43'815.6
2017-Dec-16 22:00N 57°49' E 006°57'815.9
2017-Dec-16 21:30N 57°49' E 007°12'816.1
2017-Dec-16 21:00N 57°49' E 007°27'815.5
2017-Dec-16 20:30N 57°49' E 007°42'815.7
2017-Dec-16 19:59N 57°49' E 007°57'815.6
2017-Dec-16 19:30N 57°49' E 008°11'7014.8
2017-Dec-16 14:45N 57°49' E 010°23'414.6
2017-Dec-16 14:30N 57°49' E 010°30'714.2
2017-Dec-16 14:00N 57°49' E 010°43'713.9
2017-Dec-16 13:30N 57°45' E 010°53'714.3
2017-Dec-16 13:00N 57°40' E 011°03'714.6
2017-Dec-16 12:30N 57°35' E 011°13'815.3
2017-Dec-16 12:00N 57°30' E 011°24'815.2
2017-Dec-16 11:30N 57°23' E 011°30'815.1
2017-Dec-16 11:00N 57°16' E 011°34'815.1
2017-Dec-16 10:30N 57°09' E 011°38'1015.4
2017-Dec-16 09:52N 56°60' E 011°45'4914.5
2017-Dec-16 06:29N 56°14' E 012°17'815.6
2017-Dec-16 06:00N 56°09' E 012°28'816.6
2017-Dec-16 05:30N 56°04' E 012°39'713.6
2017-Dec-16 05:00N 55°57' E 012°40'713.7
2017-Dec-16 04:30N 55°50' E 012°42'815.2
2017-Dec-16 04:00N 55°43' E 012°41'714.4
2017-Dec-16 03:30N 55°36' E 012°42'612.8
2017-Dec-16 03:00N 55°29' E 012°42'713.6
2017-Dec-16 02:30N 55°22' E 012°41'612.3
2017-Dec-16 02:00N 55°17' E 012°47'714.6
2017-Dec-16 01:30N 55°16' E 013°00'714.9
2017-Dec-16 01:00N 55°16' E 013°13'1714.7
2017-Dec-15 23:52N 55°15' E 013°42'1414.8
2017-Dec-15 22:56N 55°14' E 014°06'713.7
2017-Dec-15 22:24N 55°15' E 014°19'615.1
2017-Dec-15 22:00N 55°20' E 014°26'815.1
2017-Dec-15 21:30N 55°25' E 014°35'815.1
2017-Dec-15 20:58N 55°30' E 014°47'815.1
2017-Dec-15 20:28N 55°33' E 014°58'914.9
2017-Dec-15 19:53N 55°38' E 015°11'614.8
2017-Dec-15 19:30N 55°41' E 015°20'714.8
2017-Dec-15 19:00N 55°44' E 015°32'714.8
2017-Dec-15 18:30N 55°48' E 015°43'714.7
2017-Dec-15 18:00N 55°52' E 015°54'714.7
2017-Dec-15 17:30N 55°55' E 016°05'714.7
2017-Dec-15 17:00N 55°59' E 016°17'714.5
2017-Dec-15 16:30N 56°03' E 016°28'814.7
2017-Dec-15 15:57N 56°07' E 016°41'323 9.1
2017-Dec-14 04:39N 59°45' E 024°09'311.4
2017-Dec-14 04:25N 59°45' E 024°14'512.4
2017-Dec-14 04:00N 59°47' E 024°24'510.8
2017-Dec-14 03:30N 59°48' E 024°34'611.7
2017-Dec-14 03:00N 59°49' E 024°46'611.8
2017-Dec-14 02:30N 59°50' E 024°57'611.4
2017-Dec-14 02:00N 59°51' E 025°08'711.0
2017-Dec-14 01:20N 59°53' E 025°23'411.2
2017-Dec-14 01:00N 59°53' E 025°30'2211.4
2017-Dec-13 23:06N 59°59' E 026°12'111.3
2017-Dec-13 23:00N 59°59' E 026°14'611.6
2017-Dec-13 22:29N 60°01' E 026°26'612.4
2017-Dec-13 22:00N 60°01' E 026°38'611.4
2017-Dec-13 21:30N 60°00' E 026°49'612.4
2017-Dec-13 21:01N 59°60' E 027°01'612.3
2017-Dec-13 20:30N 60°02' E 027°12'612.0
2017-Dec-13 20:00N 60°05' E 027°22'612.4
2017-Dec-13 19:31N 60°09' E 027°33'612.2
2017-Dec-13 19:01N 60°12' E 027°44'612.1
2017-Dec-13 18:30N 60°11' E 027°56'612.9
2017-Dec-13 18:01N 60°09' E 028°08'612.9
2017-Dec-13 17:30N 60°07' E 028°20'713.4
2017-Dec-13 17:00N 60°03' E 028°32'713.3
2017-Dec-13 16:30N 60°03' E 028°45'813.5
2017-Dec-13 15:57N 60°02' E 029°00'2012.6
2017-Dec-13 14:24N 59°60' E 029°39'410.1
2017-Dec-13 14:00N 59°58' E 029°46'510.1
2017-Dec-13 13:30N 59°56' E 029°56'510.5
2017-Dec-13 13:00N 59°54' E 030°05'4 7.1
2017-Dec-13 12:30N 59°53' E 030°12'1 1.3
2017-Dec-13 11:58N 59°52' E 030°13'0 0.0
2017-Dec-13 11:28N 59°52' E 030°13'0 0.0
2017-Dec-13 10:58N 59°52' E 030°13'0 0.0
2017-Dec-13 10:28N 59°52' E 030°13'0 0.0
2017-Dec-13 09:58N 59°52' E 030°13'0 0.0
2017-Dec-13 09:30N 59°52' E 030°13'0 0.0
2017-Dec-13 09:00N 59°52' E 030°13'0 0.0
2017-Dec-13 08:30N 59°52' E 030°13'0 0.0
2017-Dec-13 08:00N 59°52' E 030°13'0 0.0
2017-Dec-13 07:30N 59°52' E 030°13'0 0.0
2017-Dec-13 07:00N 59°52' E 030°13'0 0.0
2017-Dec-13 06:24N 59°52' E 030°13'0 0.0
2017-Dec-13 06:00N 59°52' E 030°13'0 0.0
2017-Dec-13 05:30N 59°52' E 030°13'0 0.0
2017-Dec-13 05:00N 59°52' E 030°13'0 0.0
2017-Dec-13 04:30N 59°52' E 030°13'0 0.0
2017-Dec-13 04:00N 59°52' E 030°13'0 0.1
2017-Dec-13 03:30N 59°52' E 030°13'0 0.1
2017-Dec-13 03:00N 59°52' E 030°13'0 0.0
2017-Dec-13 02:30N 59°52' E 030°13'0 0.0
2017-Dec-13 02:00N 59°52' E 030°13'0 0.0
2017-Dec-13 01:30N 59°52' E 030°13'0 0.0
2017-Dec-13 01:00N 59°52' E 030°13'0 0.0
2017-Dec-13 00:30N 59°52' E 030°13'0 0.0
2017-Dec-13 00:00N 59°52' E 030°13'0 0.0
2017-Dec-12 23:30N 59°52' E 030°13'0 0.0
2017-Dec-12 23:00N 59°52' E 030°13'0 0.0
2017-Dec-12 22:30N 59°52' E 030°13'0 0.0
2017-Dec-12 22:00N 59°52' E 030°13'0 0.0
2017-Dec-12 21:30N 59°52' E 030°13'0 0.0
2017-Dec-12 21:00N 59°52' E 030°13'0 0.0
2017-Dec-12 20:30N 59°52' E 030°13'0 0.0
2017-Dec-12 20:00N 59°52' E 030°13'0 0.0
2017-Dec-12 19:30N 59°52' E 030°13'0 0.0
2017-Dec-12 18:57N 59°52' E 030°13'0 0.0
2017-Dec-12 18:30N 59°52' E 030°13'0 0.0
2017-Dec-12 18:00N 59°52' E 030°13'0 0.0
2017-Dec-12 17:30N 59°52' E 030°13'0 0.0
2017-Dec-12 17:00N 59°52' E 030°13'0 0.0
2017-Dec-12 16:30N 59°52' E 030°13'0 0.0
2017-Dec-12 16:00N 59°52' E 030°13'0 0.0
2017-Dec-12 15:29N 59°52' E 030°13'0 0.0
2017-Dec-12 15:00N 59°52' E 030°13'0 0.0
2017-Dec-12 14:27N 59°52' E 030°13'0 0.0
2017-Dec-12 14:00N 59°52' E 030°13'0 0.0
2017-Dec-12 13:29N 59°52' E 030°13'0 0.0
2017-Dec-12 13:00N 59°52' E 030°13'0 0.0
2017-Dec-12 12:30N 59°52' E 030°13'0 0.0
2017-Dec-12 11:57N 59°52' E 030°13'0 0.0
2017-Dec-12 11:30N 59°52' E 030°13'0 0.0
2017-Dec-12 10:59N 59°52' E 030°13'0 0.0
2017-Dec-12 10:28N 59°52' E 030°13'0 0.0
2017-Dec-12 09:55N 59°52' E 030°13'0 0.0
2017-Dec-12 09:28N 59°52' E 030°13'0 0.0
2017-Dec-12 08:58N 59°52' E 030°13'0 0.0
2017-Dec-12 08:28N 59°52' E 030°13'0 0.0
2017-Dec-12 07:58N 59°52' E 030°13'0 0.0
2017-Dec-12 07:28N 59°52' E 030°13'0 0.0
2017-Dec-12 06:58N 59°52' E 030°13'0 0.0
2017-Dec-12 06:28N 59°52' E 030°13'0 0.0
2017-Dec-12 05:55N 59°52' E 030°13'0 0.0
2017-Dec-12 05:28N 59°52' E 030°13'0 0.0
2017-Dec-12 04:58N 59°52' E 030°13'0 0.1
2017-Dec-12 04:28N 59°52' E 030°13'0 0.1
2017-Dec-12 03:58N 59°52' E 030°13'0 0.0
2017-Dec-12 03:28N 59°52' E 030°13'0 0.0
2017-Dec-12 02:58N 59°52' E 030°13'0 0.0
2017-Dec-12 02:28N 59°52' E 030°13'0 0.0
2017-Dec-12 01:58N 59°52' E 030°13'0 0.0
2017-Dec-12 01:28N 59°52' E 030°13'0 0.0
2017-Dec-12 00:58N 59°52' E 030°13'0 0.0
2017-Dec-12 00:28N 59°52' E 030°13'0 0.0
2017-Dec-11 23:58N 59°52' E 030°13'0 0.0
2017-Dec-11 23:28N 59°52' E 030°13'0 0.0
2017-Dec-11 22:58N 59°52' E 030°13'0 0.0
2017-Dec-11 22:28N 59°52' E 030°13'0 0.0
2017-Dec-11 21:58N 59°52' E 030°13'0 0.0
2017-Dec-11 21:28N 59°52' E 030°13'0 0.0
2017-Dec-11 20:58N 59°52' E 030°13'0 0.0
2017-Dec-11 20:28N 59°52' E 030°13'0 0.0
2017-Dec-11 19:58N 59°52' E 030°13'0 0.1
2017-Dec-11 19:28N 59°52' E 030°13'0 0.1
2017-Dec-11 18:58N 59°52' E 030°13'0 0.0
2017-Dec-11 18:28N 59°52' E 030°13'0 0.0
2017-Dec-11 17:58N 59°52' E 030°13'0 0.0
2017-Dec-11 17:28N 59°52' E 030°13'0 0.0
2017-Dec-11 16:58N 59°52' E 030°13'0 0.0
2017-Dec-11 16:28N 59°52' E 030°13'0 0.0
2017-Dec-11 15:58N 59°52' E 030°13'0 0.0
2017-Dec-11 15:28N 59°52' E 030°13'0 0.0
2017-Dec-11 14:58N 59°52' E 030°13'0 0.0
2017-Dec-11 14:28N 59°52' E 030°13'0 0.0
2017-Dec-11 13:58N 59°52' E 030°13'0 0.0
2017-Dec-11 13:25N 59°52' E 030°13'0 0.0
2017-Dec-11 12:58N 59°52' E 030°13'0 0.0
2017-Dec-11 12:28N 59°52' E 030°13'0 0.0
2017-Dec-11 11:58N 59°52' E 030°13'0 0.0
2017-Dec-11 11:28N 59°52' E 030°13'0 0.0
2017-Dec-11 10:58N 59°52' E 030°13'0 0.0
2017-Dec-11 10:28N 59°52' E 030°13'0 0.0
2017-Dec-11 09:58N 59°52' E 030°13'0 0.0
2017-Dec-11 09:28N 59°52' E 030°13'0 0.0
2017-Dec-11 08:58N 59°52' E 030°13'0 0.0
2017-Dec-11 08:28N 59°52' E 030°13'0 0.0
2017-Dec-11 07:58N 59°52' E 030°13'0 0.0
2017-Dec-11 07:28N 59°52' E 030°13'0 0.0
2017-Dec-11 06:55N 59°52' E 030°13'0 0.0
2017-Dec-11 06:25N 59°52' E 030°13'0 0.0
2017-Dec-11 05:58N 59°52' E 030°13'0 0.0
2017-Dec-11 05:28N 59°52' E 030°13'0 0.0
2017-Dec-11 04:58N 59°52' E 030°13'0 0.0
2017-Dec-11 04:28N 59°52' E 030°13'0 0.0
2017-Dec-11 03:58N 59°52' E 030°13'0 0.0
2017-Dec-11 03:28N 59°52' E 030°13'0 0.0
2017-Dec-11 02:58N 59°52' E 030°13'0 0.0
2017-Dec-11 02:28N 59°52' E 030°13'0 0.0
2017-Dec-11 01:58N 59°52' E 030°13'0 0.0
2017-Dec-11 01:28N 59°52' E 030°13'0 0.0
2017-Dec-11 00:58N 59°52' E 030°13'0 0.0
2017-Dec-11 00:28N 59°52' E 030°13'0 0.0
2017-Dec-10 23:58N 59°52' E 030°13'0 0.0
2017-Dec-10 23:28N 59°52' E 030°13'0 0.0
2017-Dec-10 22:58N 59°52' E 030°13'0 0.0
2017-Dec-10 22:28N 59°52' E 030°13'0 0.0
2017-Dec-10 21:58N 59°52' E 030°13'0 0.0
2017-Dec-10 21:28N 59°52' E 030°13'0 0.0
2017-Dec-10 20:58N 59°52' E 030°13'0 0.0
2017-Dec-10 20:28N 59°52' E 030°13'0 0.0
2017-Dec-10 19:58N 59°52' E 030°13'0 0.0
2017-Dec-10 19:28N 59°52' E 030°13'0 0.0
2017-Dec-10 18:58N 59°52' E 030°13'0 0.0
2017-Dec-10 18:28N 59°52' E 030°13'0 0.0
2017-Dec-10 17:58N 59°52' E 030°13'0 0.0
2017-Dec-10 17:28N 59°52' E 030°13'0 0.0
2017-Dec-10 16:58N 59°52' E 030°13'0 0.0
2017-Dec-10 16:28N 59°52' E 030°13'0 0.0
2017-Dec-10 15:58N 59°52' E 030°13'0 0.0
2017-Dec-10 15:28N 59°52' E 030°13'0 0.0
2017-Dec-10 14:58N 59°52' E 030°13'0 0.0
2017-Dec-10 14:28N 59°52' E 030°13'0 0.0
2017-Dec-10 13:58N 59°52' E 030°13'0 0.0
2017-Dec-10 13:28N 59°52' E 030°13'0 0.0
2017-Dec-10 12:58N 59°52' E 030°13'0 0.0
2017-Dec-10 12:28N 59°52' E 030°13'0 0.0
2017-Dec-10 11:55N 59°52' E 030°13'0 0.0
2017-Dec-10 11:28N 59°52' E 030°13'0 0.0
2017-Dec-10 10:58N 59°52' E 030°13'0 0.0
2017-Dec-10 10:28N 59°52' E 030°13'0 0.0
2017-Dec-10 09:55N 59°52' E 030°13'0 0.0
2017-Dec-10 09:28N 59°52' E 030°13'0 0.0
2017-Dec-10 08:55N 59°52' E 030°13'0 0.0
2017-Dec-10 08:28N 59°52' E 030°13'0 0.0
2017-Dec-10 07:58N 59°52' E 030°13'0 0.0
2017-Dec-10 07:28N 59°52' E 030°13'0 0.0
2017-Dec-10 06:58N 59°52' E 030°13'0 0.0
2017-Dec-10 06:28N 59°52' E 030°13'0 0.0
2017-Dec-10 05:58N 59°52' E 030°13'0 0.0
2017-Dec-10 05:28N 59°52' E 030°13'0 0.0
2017-Dec-10 04:58N 59°52' E 030°13'0 0.0
2017-Dec-10 04:28N 59°52' E 030°13'0 0.0
2017-Dec-10 03:58N 59°52' E 030°13'0 0.0
2017-Dec-10 03:28N 59°52' E 030°13'0 0.0
2017-Dec-10 02:58N 59°52' E 030°13'0 0.0
2017-Dec-10 02:28N 59°52' E 030°13'0 0.0
2017-Dec-10 01:58N 59°52' E 030°13'0 0.0
2017-Dec-10 01:28N 59°52' E 030°13'0 0.0
2017-Dec-10 00:58N 59°52' E 030°13'0 0.0
2017-Dec-10 00:28N 59°52' E 030°13'0 0.0
2017-Dec-09 23:58N 59°52' E 030°13'0 0.0
2017-Dec-09 23:28N 59°52' E 030°13'0 0.0
2017-Dec-09 22:58N 59°52' E 030°13'0 0.0
2017-Dec-09 22:28N 59°52' E 030°13'0 0.0
2017-Dec-09 21:58N 59°52' E 030°13'0 0.0
2017-Dec-09 21:28N 59°52' E 030°13'0 0.0
2017-Dec-09 20:58N 59°52' E 030°13'0 0.0
2017-Dec-09 20:29N 59°52' E 030°13'0 0.0
2017-Dec-09 19:59N 59°52' E 030°13'0 0.0
2017-Dec-09 19:23N 59°52' E 030°13'0 0.0
2017-Dec-09 18:59N 59°52' E 030°13'0 0.0
2017-Dec-09 18:26N 59°52' E 030°13'0 0.0
2017-Dec-09 17:59N 59°52' E 030°13'0 0.0
2017-Dec-09 17:26N 59°52' E 030°13'0 0.0
2017-Dec-09 16:59N 59°52' E 030°13'0 0.0
2017-Dec-09 16:26N 59°52' E 030°13'0 0.0
2017-Dec-09 15:56N 59°52' E 030°13'0 0.0
2017-Dec-09 15:30N 59°52' E 030°13'2 3.3
2017-Dec-09 15:01N 59°53' E 030°10'4 7.5
2017-Dec-09 14:30N 59°55' E 030°03'510.3
2017-Dec-09 14:01N 59°57' E 029°54'510.2
2017-Dec-09 13:31N 59°59' E 029°45'510.6
2017-Dec-09 13:00N 60°01' E 029°34'16 2.3
2017-Dec-09 06:02N 60°02' E 029°03'011.2
2017-Dec-09 06:00N 60°02' E 029°02'611.3
2017-Dec-09 05:31N 60°02' E 028°51'611.6
2017-Dec-09 05:00N 60°02' E 028°39'510.5
2017-Dec-09 04:31N 60°03' E 028°29'510.7
2017-Dec-09 04:01N 60°06' E 028°20'5 9.7
2017-Dec-09 03:30N 60°08' E 028°11'5 9.9
2017-Dec-09 03:00N 60°09' E 028°01'5 9.9
2017-Dec-09 02:30N 60°10' E 027°51'5 9.2
2017-Dec-09 02:00N 60°10' E 027°42'510.4
2017-Dec-09 01:30N 60°07' E 027°33'510.5
2017-Dec-09 01:01N 60°04' E 027°24'510.2
2017-Dec-09 00:30N 60°02' E 027°15'510.3
2017-Dec-09 00:00N 59°59' E 027°07'5 9.3
2017-Dec-08 23:30N 59°58' E 026°58'510.0
2017-Dec-08 23:00N 59°59' E 026°48'5 9.9
2017-Dec-08 22:31N 59°59' E 026°38'510.5
2017-Dec-08 22:01N 59°58' E 026°28'510.3
2017-Dec-08 21:30N 59°56' E 026°18'2711.0
2017-Dec-08 19:02N 59°50' E 025°25'011.4
2017-Dec-08 19:00N 59°50' E 025°24'611.3
2017-Dec-08 18:30N 59°49' E 025°13'611.2
2017-Dec-08 17:59N 59°48' E 025°02'511.5
2017-Dec-08 17:31N 59°47' E 024°51'611.7
2017-Dec-08 17:01N 59°46' E 024°40'611.6
2017-Dec-08 16:31N 59°44' E 024°29'611.6
2017-Dec-08 16:00N 59°43' E 024°17'32511.0
2017-Dec-07 10:36N 56°04' E 016°47'211.3
2017-Dec-07 10:28N 56°03' E 016°45'511.2
2017-Dec-07 10:00N 55°60' E 016°37'511.0
2017-Dec-07 09:31N 55°57' E 016°28'510.9
2017-Dec-07 09:01N 55°55' E 016°20'611.1
2017-Dec-07 08:31N 55°52' E 016°11'611.3
2017-Dec-07 08:01N 55°49' E 016°02'611.5
2017-Dec-07 07:31N 55°46' E 015°53'611.4
2017-Dec-07 07:00N 55°44' E 015°44'611.4
2017-Dec-07 06:31N 55°41' E 015°35'611.3
2017-Dec-07 06:01N 55°38' E 015°27'611.2
2017-Dec-07 05:30N 55°36' E 015°18'611.1
2017-Dec-07 04:58N 55°33' E 015°09'711.1
2017-Dec-07 04:17N 55°29' E 014°57'311.2
2017-Dec-07 04:00N 55°28' E 014°52'611.0
2017-Dec-07 03:27N 55°25' E 014°43'510.6
2017-Dec-07 03:01N 55°22' E 014°36'510.8
2017-Dec-07 02:31N 55°18' E 014°30'510.6
2017-Dec-07 02:01N 55°14' E 014°24'510.5
2017-Dec-07 01:30N 55°10' E 014°18'610.9
2017-Dec-07 01:00N 55°10' E 014°08'611.0
2017-Dec-07 00:29N 55°11' E 013°58'  
Track history (hours):
 
Tides and Currents Weather Stations Pressure Air Temp Water Temp Dewpoint Dewpoint Depression Visibility Wind Speed Wind Dir Waves Ship Positions

Green Lofoten

Last reported at 2017-Dec-17 00:00 UTC. Time now 2017-Dec-18 13:01 UTC.
Position N 57°48' E 006°01'.

Length 98 m; draft 4.6 m.

Type: Ship. MMSI: 212857000.

Date/timePositionNaut miles runAvg speedWind from/ knotsBaromVisibWave heightAir tempDewpointWater temp
2017-Dec-17 00:00N 57°48' E 006°01'714.4
2017-Dec-16 23:30N 57°48' E 006°14'714.5
2017-Dec-16 23:00N 57°48' E 006°28'815.3
2017-Dec-16 22:30N 57°49' E 006°43'815.6
2017-Dec-16 22:00N 57°49' E 006°57'815.9
2017-Dec-16 21:30N 57°49' E 007°12'816.1
2017-Dec-16 21:00N 57°49' E 007°27'815.5
2017-Dec-16 20:30N 57°49' E 007°42'815.7
2017-Dec-16 19:59N 57°49' E 007°57'815.6
2017-Dec-16 19:30N 57°49' E 008°11'7014.8
2017-Dec-16 14:45N 57°49' E 010°23'414.6
2017-Dec-16 14:30N 57°49' E 010°30'714.2
2017-Dec-16 14:00N 57°49' E 010°43'713.9
2017-Dec-16 13:30N 57°45' E 010°53'714.3
2017-Dec-16 13:00N 57°40' E 011°03'714.6
2017-Dec-16 12:30N 57°35' E 011°13'815.3
2017-Dec-16 12:00N 57°30' E 011°24'815.2
2017-Dec-16 11:30N 57°23' E 011°30'815.1
2017-Dec-16 11:00N 57°16' E 011°34'815.1
2017-Dec-16 10:30N 57°09' E 011°38'1015.4
2017-Dec-16 09:52N 56°60' E 011°45'4914.5
2017-Dec-16 06:29N 56°14' E 012°17'815.6
2017-Dec-16 06:00N 56°09' E 012°28'816.6
2017-Dec-16 05:30N 56°04' E 012°39'713.6
2017-Dec-16 05:00N 55°57' E 012°40'713.7
2017-Dec-16 04:30N 55°50' E 012°42'815.2
2017-Dec-16 04:00N 55°43' E 012°41'714.4
2017-Dec-16 03:30N 55°36' E 012°42'612.8
2017-Dec-16 03:00N 55°29' E 012°42'713.6
2017-Dec-16 02:30N 55°22' E 012°41'612.3
2017-Dec-16 02:00N 55°17' E 012°47'714.6
2017-Dec-16 01:30N 55°16' E 013°00'714.9
2017-Dec-16 01:00N 55°16' E 013°13'1714.7
2017-Dec-15 23:52N 55°15' E 013°42'1414.8
2017-Dec-15 22:56N 55°14' E 014°06'713.7
2017-Dec-15 22:24N 55°15' E 014°19'615.1
2017-Dec-15 22:00N 55°20' E 014°26'815.1
2017-Dec-15 21:30N 55°25' E 014°35'815.1
2017-Dec-15 20:58N 55°30' E 014°47'815.1
2017-Dec-15 20:28N 55°33' E 014°58'914.9
2017-Dec-15 19:53N 55°38' E 015°11'614.8
2017-Dec-15 19:30N 55°41' E 015°20'714.8
2017-Dec-15 19:00N 55°44' E 015°32'714.8
2017-Dec-15 18:30N 55°48' E 015°43'714.7
2017-Dec-15 18:00N 55°52' E 015°54'714.7
2017-Dec-15 17:30N 55°55' E 016°05'714.7
2017-Dec-15 17:00N 55°59' E 016°17'714.5
2017-Dec-15 16:30N 56°03' E 016°28'814.7
2017-Dec-15 15:57N 56°07' E 016°41'323 9.1
2017-Dec-14 04:39N 59°45' E 024°09'311.4
2017-Dec-14 04:25N 59°45' E 024°14'512.4
2017-Dec-14 04:00N 59°47' E 024°24'510.8
2017-Dec-14 03:30N 59°48' E 024°34'611.7
2017-Dec-14 03:00N 59°49' E 024°46'611.8
2017-Dec-14 02:30N 59°50' E 024°57'611.4
2017-Dec-14 02:00N 59°51' E 025°08'711.0
2017-Dec-14 01:20N 59°53' E 025°23'411.2
2017-Dec-14 01:00N 59°53' E 025°30'2211.4
2017-Dec-13 23:06N 59°59' E 026°12'111.3
2017-Dec-13 23:00N 59°59' E 026°14'611.6
2017-Dec-13 22:29N 60°01' E 026°26'612.4
2017-Dec-13 22:00N 60°01' E 026°38'611.4
2017-Dec-13 21:30N 60°00' E 026°49'612.4
2017-Dec-13 21:01N 59°60' E 027°01'612.3
2017-Dec-13 20:30N 60°02' E 027°12'612.0
2017-Dec-13 20:00N 60°05' E 027°22'612.4
2017-Dec-13 19:31N 60°09' E 027°33'612.2
2017-Dec-13 19:01N 60°12' E 027°44'612.1
2017-Dec-13 18:30N 60°11' E 027°56'612.9
2017-Dec-13 18:01N 60°09' E 028°08'612.9
2017-Dec-13 17:30N 60°07' E 028°20'713.4
2017-Dec-13 17:00N 60°03' E 028°32'713.3
2017-Dec-13 16:30N 60°03' E 028°45'813.5
2017-Dec-13 15:57N 60°02' E 029°00'2012.6
2017-Dec-13 14:24N 59°60' E 029°39'410.1
2017-Dec-13 14:00N 59°58' E 029°46'510.1
2017-Dec-13 13:30N 59°56' E 029°56'510.5
2017-Dec-13 13:00N 59°54' E 030°05'4 7.1
2017-Dec-13 12:30N 59°53' E 030°12'1 1.3
2017-Dec-13 11:58N 59°52' E 030°13'0 0.0
2017-Dec-13 11:28N 59°52' E 030°13'0 0.0
2017-Dec-13 10:58N 59°52' E 030°13'0 0.0
2017-Dec-13 10:28N 59°52' E 030°13'0 0.0
2017-Dec-13 09:58N 59°52' E 030°13'0 0.0
2017-Dec-13 09:30N 59°52' E 030°13'0 0.0
2017-Dec-13 09:00N 59°52' E 030°13'0 0.0
2017-Dec-13 08:30N 59°52' E 030°13'0 0.0
2017-Dec-13 08:00N 59°52' E 030°13'0 0.0
2017-Dec-13 07:30N 59°52' E 030°13'0 0.0
2017-Dec-13 07:00N 59°52' E 030°13'0 0.0
2017-Dec-13 06:24N 59°52' E 030°13'0 0.0
2017-Dec-13 06:00N 59°52' E 030°13'0 0.0
2017-Dec-13 05:30N 59°52' E 030°13'0 0.0
2017-Dec-13 05:00N 59°52' E 030°13'0 0.0
2017-Dec-13 04:30N 59°52' E 030°13'0 0.0
2017-Dec-13 04:00N 59°52' E 030°13'0 0.1
2017-Dec-13 03:30N 59°52' E 030°13'0 0.1
2017-Dec-13 03:00N 59°52' E 030°13'0 0.0
2017-Dec-13 02:30N 59°52' E 030°13'0 0.0
2017-Dec-13 02:00N 59°52' E 030°13'0 0.0
2017-Dec-13 01:30N 59°52' E 030°13'0 0.0
2017-Dec-13 01:00N 59°52' E 030°13'0 0.0
2017-Dec-13 00:30N 59°52' E 030°13'0 0.0
2017-Dec-13 00:00N 59°52' E 030°13'0 0.0
2017-Dec-12 23:30N 59°52' E 030°13'0 0.0
2017-Dec-12 23:00N 59°52' E 030°13'0 0.0
2017-Dec-12 22:30N 59°52' E 030°13'0 0.0
2017-Dec-12 22:00N 59°52' E 030°13'0 0.0
2017-Dec-12 21:30N 59°52' E 030°13'0 0.0
2017-Dec-12 21:00N 59°52' E 030°13'0 0.0
2017-Dec-12 20:30N 59°52' E 030°13'0 0.0
2017-Dec-12 20:00N 59°52' E 030°13'0 0.0
2017-Dec-12 19:30N 59°52' E 030°13'0 0.0
2017-Dec-12 18:57N 59°52' E 030°13'0 0.0
2017-Dec-12 18:30N 59°52' E 030°13'0 0.0
2017-Dec-12 18:00N 59°52' E 030°13'0 0.0
2017-Dec-12 17:30N 59°52' E 030°13'0 0.0
2017-Dec-12 17:00N 59°52' E 030°13'0 0.0
2017-Dec-12 16:30N 59°52' E 030°13'0 0.0
2017-Dec-12 16:00N 59°52' E 030°13'0 0.0
2017-Dec-12 15:29N 59°52' E 030°13'0 0.0
2017-Dec-12 15:00N 59°52' E 030°13'0 0.0
2017-Dec-12 14:27N 59°52' E 030°13'0 0.0
2017-Dec-12 14:00N 59°52' E 030°13'0 0.0
2017-Dec-12 13:29N 59°52' E 030°13'0 0.0
2017-Dec-12 13:00N 59°52' E 030°13'0 0.0
2017-Dec-12 12:30N 59°52' E 030°13'0 0.0
2017-Dec-12 11:57N 59°52' E 030°13'0 0.0
2017-Dec-12 11:30N 59°52' E 030°13'0 0.0
2017-Dec-12 10:59N 59°52' E 030°13'0 0.0
2017-Dec-12 10:28N 59°52' E 030°13'0 0.0
2017-Dec-12 09:55N 59°52' E 030°13'0 0.0
2017-Dec-12 09:28N 59°52' E 030°13'0 0.0
2017-Dec-12 08:58N 59°52' E 030°13'0 0.0
2017-Dec-12 08:28N 59°52' E 030°13'0 0.0
2017-Dec-12 07:58N 59°52' E 030°13'0 0.0
2017-Dec-12 07:28N 59°52' E 030°13'0 0.0
2017-Dec-12 06:58N 59°52' E 030°13'0 0.0
2017-Dec-12 06:28N 59°52' E 030°13'0 0.0
2017-Dec-12 05:55N 59°52' E 030°13'0 0.0
2017-Dec-12 05:28N 59°52' E 030°13'0 0.0
2017-Dec-12 04:58N 59°52' E 030°13'0 0.1
2017-Dec-12 04:28N 59°52' E 030°13'0 0.1
2017-Dec-12 03:58N 59°52' E 030°13'0 0.0
2017-Dec-12 03:28N 59°52' E 030°13'0 0.0
2017-Dec-12 02:58N 59°52' E 030°13'0 0.0
2017-Dec-12 02:28N 59°52' E 030°13'0 0.0
2017-Dec-12 01:58N 59°52' E 030°13'0 0.0
2017-Dec-12 01:28N 59°52' E 030°13'0 0.0
2017-Dec-12 00:58N 59°52' E 030°13'0 0.0
2017-Dec-12 00:28N 59°52' E 030°13'0 0.0
2017-Dec-11 23:58N 59°52' E 030°13'0 0.0
2017-Dec-11 23:28N 59°52' E 030°13'0 0.0
2017-Dec-11 22:58N 59°52' E 030°13'0 0.0
2017-Dec-11 22:28N 59°52' E 030°13'0 0.0
2017-Dec-11 21:58N 59°52' E 030°13'0 0.0
2017-Dec-11 21:28N 59°52' E 030°13'0 0.0
2017-Dec-11 20:58N 59°52' E 030°13'0 0.0
2017-Dec-11 20:28N 59°52' E 030°13'0 0.0
2017-Dec-11 19:58N 59°52' E 030°13'0 0.1
2017-Dec-11 19:28N 59°52' E 030°13'0 0.1
2017-Dec-11 18:58N 59°52' E 030°13'0 0.0
2017-Dec-11 18:28N 59°52' E 030°13'0 0.0
2017-Dec-11 17:58N 59°52' E 030°13'0 0.0
2017-Dec-11 17:28N 59°52' E 030°13'0 0.0
2017-Dec-11 16:58N 59°52' E 030°13'0 0.0
2017-Dec-11 16:28N 59°52' E 030°13'0 0.0
2017-Dec-11 15:58N 59°52' E 030°13'0 0.0
2017-Dec-11 15:28N 59°52' E 030°13'0 0.0
2017-Dec-11 14:58N 59°52' E 030°13'0 0.0
2017-Dec-11 14:28N 59°52' E 030°13'0 0.0
2017-Dec-11 13:58N 59°52' E 030°13'0 0.0
2017-Dec-11 13:25N 59°52' E 030°13'0 0.0
2017-Dec-11 12:58N 59°52' E 030°13'0 0.0
2017-Dec-11 12:28N 59°52' E 030°13'0 0.0
2017-Dec-11 11:58N 59°52' E 030°13'0 0.0
2017-Dec-11 11:28N 59°52' E 030°13'0 0.0
2017-Dec-11 10:58N 59°52' E 030°13'0 0.0
2017-Dec-11 10:28N 59°52' E 030°13'0 0.0
2017-Dec-11 09:58N 59°52' E 030°13'0 0.0
2017-Dec-11 09:28N 59°52' E 030°13'0 0.0
2017-Dec-11 08:58N 59°52' E 030°13'0 0.0
2017-Dec-11 08:28N 59°52' E 030°13'0 0.0
2017-Dec-11 07:58N 59°52' E 030°13'0 0.0
2017-Dec-11 07:28N 59°52' E 030°13'0 0.0
2017-Dec-11 06:55N 59°52' E 030°13'0 0.0
2017-Dec-11 06:25N 59°52' E 030°13'0 0.0
2017-Dec-11 05:58N 59°52' E 030°13'0 0.0
2017-Dec-11 05:28N 59°52' E 030°13'0 0.0
2017-Dec-11 04:58N 59°52' E 030°13'0 0.0
2017-Dec-11 04:28N 59°52' E 030°13'0 0.0
2017-Dec-11 03:58N 59°52' E 030°13'0 0.0
2017-Dec-11 03:28N 59°52' E 030°13'0 0.0
2017-Dec-11 02:58N 59°52' E 030°13'0 0.0
2017-Dec-11 02:28N 59°52' E 030°13'0 0.0
2017-Dec-11 01:58N 59°52' E 030°13'0 0.0
2017-Dec-11 01:28N 59°52' E 030°13'0 0.0
2017-Dec-11 00:58N 59°52' E 030°13'0 0.0
2017-Dec-11 00:28N 59°52' E 030°13'0 0.0
2017-Dec-10 23:58N 59°52' E 030°13'0 0.0
2017-Dec-10 23:28N 59°52' E 030°13'0 0.0
2017-Dec-10 22:58N 59°52' E 030°13'0 0.0
2017-Dec-10 22:28N 59°52' E 030°13'0 0.0
2017-Dec-10 21:58N 59°52' E 030°13'0 0.0
2017-Dec-10 21:28N 59°52' E 030°13'0 0.0
2017-Dec-10 20:58N 59°52' E 030°13'0 0.0
2017-Dec-10 20:28N 59°52' E 030°13'0 0.0
2017-Dec-10 19:58N 59°52' E 030°13'0 0.0
2017-Dec-10 19:28N 59°52' E 030°13'0 0.0
2017-Dec-10 18:58N 59°52' E 030°13'0 0.0
2017-Dec-10 18:28N 59°52' E 030°13'0 0.0
2017-Dec-10 17:58N 59°52' E 030°13'0 0.0
2017-Dec-10 17:28N 59°52' E 030°13'0 0.0
2017-Dec-10 16:58N 59°52' E 030°13'0 0.0
2017-Dec-10 16:28N 59°52' E 030°13'0 0.0
2017-Dec-10 15:58N 59°52' E 030°13'0 0.0
2017-Dec-10 15:28N 59°52' E 030°13'0 0.0
2017-Dec-10 14:58N 59°52' E 030°13'0 0.0
2017-Dec-10 14:28N 59°52' E 030°13'0 0.0
2017-Dec-10 13:58N 59°52' E 030°13'0 0.0
2017-Dec-10 13:28N 59°52' E 030°13'0 0.0
2017-Dec-10 12:58N 59°52' E 030°13'0 0.0
2017-Dec-10 12:28N 59°52' E 030°13'0 0.0
2017-Dec-10 11:55N 59°52' E 030°13'0 0.0
2017-Dec-10 11:28N 59°52' E 030°13'0 0.0
2017-Dec-10 10:58N 59°52' E 030°13'0 0.0
2017-Dec-10 10:28N 59°52' E 030°13'0 0.0
2017-Dec-10 09:55N 59°52' E 030°13'0 0.0
2017-Dec-10 09:28N 59°52' E 030°13'0 0.0
2017-Dec-10 08:55N 59°52' E 030°13'0 0.0
2017-Dec-10 08:28N 59°52' E 030°13'0 0.0
2017-Dec-10 07:58N 59°52' E 030°13'0 0.0
2017-Dec-10 07:28N 59°52' E 030°13'0 0.0
2017-Dec-10 06:58N 59°52' E 030°13'0 0.0
2017-Dec-10 06:28N 59°52' E 030°13'0 0.0
2017-Dec-10 05:58N 59°52' E 030°13'0 0.0
2017-Dec-10 05:28N 59°52' E 030°13'0 0.0
2017-Dec-10 04:58N 59°52' E 030°13'0 0.0
2017-Dec-10 04:28N 59°52' E 030°13'0 0.0
2017-Dec-10 03:58N 59°52' E 030°13'0 0.0
2017-Dec-10 03:28N 59°52' E 030°13'0 0.0
2017-Dec-10 02:58N 59°52' E 030°13'0 0.0
2017-Dec-10 02:28N 59°52' E 030°13'0 0.0
2017-Dec-10 01:58N 59°52' E 030°13'0 0.0
2017-Dec-10 01:28N 59°52' E 030°13'0 0.0
2017-Dec-10 00:58N 59°52' E 030°13'0 0.0
2017-Dec-10 00:28N 59°52' E 030°13'0 0.0
2017-Dec-09 23:58N 59°52' E 030°13'0 0.0
2017-Dec-09 23:28N 59°52' E 030°13'0 0.0
2017-Dec-09 22:58N 59°52' E 030°13'0 0.0
2017-Dec-09 22:28N 59°52' E 030°13'0 0.0
2017-Dec-09 21:58N 59°52' E 030°13'0 0.0
2017-Dec-09 21:28N 59°52' E 030°13'0 0.0
2017-Dec-09 20:58N 59°52' E 030°13'0 0.0
2017-Dec-09 20:29N 59°52' E 030°13'0 0.0
2017-Dec-09 19:59N 59°52' E 030°13'0 0.0
2017-Dec-09 19:23N 59°52' E 030°13'0 0.0
2017-Dec-09 18:59N 59°52' E 030°13'0 0.0
2017-Dec-09 18:26N 59°52' E 030°13'0 0.0
2017-Dec-09 17:59N 59°52' E 030°13'0 0.0
2017-Dec-09 17:26N 59°52' E 030°13'0 0.0
2017-Dec-09 16:59N 59°52' E 030°13'0 0.0
2017-Dec-09 16:26N 59°52' E 030°13'0 0.0
2017-Dec-09 15:56N 59°52' E 030°13'0 0.0
2017-Dec-09 15:30N 59°52' E 030°13'2 3.3
2017-Dec-09 15:01N 59°53' E 030°10'4 7.5
2017-Dec-09 14:30N 59°55' E 030°03'510.3
2017-Dec-09 14:01N 59°57' E 029°54'510.2
2017-Dec-09 13:31N 59°59' E 029°45'510.6
2017-Dec-09 13:00N 60°01' E 029°34'16 2.3
2017-Dec-09 06:02N 60°02' E 029°03'011.2
2017-Dec-09 06:00N 60°02' E 029°02'611.3
2017-Dec-09 05:31N 60°02' E 028°51'611.6
2017-Dec-09 05:00N 60°02' E 028°39'510.5
2017-Dec-09 04:31N 60°03' E 028°29'510.7
2017-Dec-09 04:01N 60°06' E 028°20'5 9.7
2017-Dec-09 03:30N 60°08' E 028°11'5 9.9
2017-Dec-09 03:00N 60°09' E 028°01'5 9.9
2017-Dec-09 02:30N 60°10' E 027°51'5 9.2
2017-Dec-09 02:00N 60°10' E 027°42'510.4
2017-Dec-09 01:30N 60°07' E 027°33'510.5
2017-Dec-09 01:01N 60°04' E 027°24'510.2
2017-Dec-09 00:30N 60°02' E 027°15'510.3
2017-Dec-09 00:00N 59°59' E 027°07'5 9.3
2017-Dec-08 23:30N 59°58' E 026°58'510.0
2017-Dec-08 23:00N 59°59' E 026°48'5 9.9
2017-Dec-08 22:31N 59°59' E 026°38'510.5
2017-Dec-08 22:01N 59°58' E 026°28'510.3
2017-Dec-08 21:30N 59°56' E 026°18'2711.0
2017-Dec-08 19:02N 59°50' E 025°25'011.4
2017-Dec-08 19:00N 59°50' E 025°24'611.3
2017-Dec-08 18:30N 59°49' E 025°13'611.2
2017-Dec-08 17:59N 59°48' E 025°02'511.5
2017-Dec-08 17:31N 59°47' E 024°51'611.7
2017-Dec-08 17:01N 59°46' E 024°40'611.6
2017-Dec-08 16:31N 59°44' E 024°29'611.6
2017-Dec-08 16:00N 59°43' E 024°17'32511.0
2017-Dec-07 10:36N 56°04' E 016°47'211.3
2017-Dec-07 10:28N 56°03' E 016°45'511.2
2017-Dec-07 10:00N 55°60' E 016°37'511.0
2017-Dec-07 09:31N 55°57' E 016°28'510.9
2017-Dec-07 09:01N 55°55' E 016°20'611.1
2017-Dec-07 08:31N 55°52' E 016°11'611.3
2017-Dec-07 08:01N 55°49' E 016°02'611.5
2017-Dec-07 07:31N 55°46' E 015°53'611.4
2017-Dec-07 07:00N 55°44' E 015°44'611.4
2017-Dec-07 06:31N 55°41' E 015°35'611.3
2017-Dec-07 06:01N 55°38' E 015°27'611.2
2017-Dec-07 05:30N 55°36' E 015°18'611.1
2017-Dec-07 04:58N 55°33' E 015°09'711.1
2017-Dec-07 04:17N 55°29' E 014°57'311.2
2017-Dec-07 04:00N 55°28' E 014°52'611.0
2017-Dec-07 03:27N 55°25' E 014°43'510.6
2017-Dec-07 03:01N 55°22' E 014°36'510.8
2017-Dec-07 02:31N 55°18' E 014°30'510.6
2017-Dec-07 02:01N 55°14' E 014°24'510.5
2017-Dec-07 01:30N 55°10' E 014°18'610.9
2017-Dec-07 01:00N 55°10' E 014°08'611.0
2017-Dec-07 00:29N 55°11' E 013°58'  

Dump ship's entire track history